Time;durP1;ratioP1;P1;durP2;ratioP2;P2;SDS_P1;SDS_P2;PMS_P1;PMS_P2;Temp;Humidity;BMP_temperature;BMP_pressure;BME280_temperature;BME280_humidity;BME280_pressure;Samples;Min_cycle;Max_cycle;Signal;HPM_P1;HPM_P2
2021/08/23 00:01:21;;;;;;;3.58;1.83;;;21.00;84.60;;;;;;5026812;28;20144;-68
2021/08/23 00:03:46;;;;;;;5.82;1.75;;;21.00;84.50;;;;;;5026760;28;20056;-68
2021/08/23 00:06:12;;;;;;;3.83;2.00;;;21.00;84.60;;;;;;5026822;28;20507;-68
2021/08/23 00:08:37;;;;;;;4.25;1.75;;;21.00;84.60;;;;;;5026780;28;20041;-68
2021/08/23 00:11:04;;;;;;;4.10;1.80;;;21.00;84.60;;;;;;5025030;28;20116;-68
2021/08/23 00:13:30;;;;;;;4.10;1.70;;;21.00;84.70;;;;;;5025079;28;20079;-68
2021/08/23 00:15:55;;;;;;;5.43;2.15;;;21.00;84.60;;;;;;5026608;28;20041;-68
2021/08/23 00:18:22;;;;;;;3.92;1.80;;;21.00;84.70;;;;;;5026540;28;20029;-67
2021/08/23 00:20:54;;;;;;;4.80;2.15;;;21.00;84.70;;;;;;5025943;28;20021;-68
2021/08/23 00:23:21;;;;;;;3.42;1.63;;;20.90;84.80;;;;;;5024911;28;20550;-66
2021/08/23 00:25:47;;;;;;;3.88;1.63;;;21.00;84.80;;;;;;5026235;28;20057;-69
2021/08/23 00:28:13;;;;;;;4.55;2.10;;;21.00;84.90;;;;;;5041437;28;20064;-68
2021/08/23 00:30:39;;;;;;;4.40;1.95;;;20.90;84.80;;;;;;5026118;28;20038;-68
2021/08/23 00:33:05;;;;;;;3.08;1.70;;;21.00;84.90;;;;;;5026220;28;20036;-68
2021/08/23 00:35:30;;;;;;;3.10;1.70;;;20.90;84.90;;;;;;5026072;28;20053;-68
2021/08/23 00:38:00;;;;;;;4.88;1.92;;;20.90;84.90;;;;;;5026239;28;20077;-68
2021/08/23 00:40:26;;;;;;;4.10;1.73;;;21.00;85.00;;;;;;5023813;28;20034;-68
2021/08/23 00:42:52;;;;;;;5.07;1.95;;;20.90;84.90;;;;;;5025501;28;20029;-68
2021/08/23 00:45:22;;;;;;;4.03;1.73;;;20.90;85.10;;;;;;5025970;28;20037;-68
2021/08/23 00:47:48;;;;;;;3.28;1.52;;;20.90;85.00;;;;;;5025935;28;20059;-68
2021/08/23 00:50:14;;;;;;;5.05;1.83;;;20.90;84.90;;;;;;5025667;28;20049;-68
2021/08/23 00:52:40;;;;;;;4.18;1.80;;;20.90;84.80;;;;;;5024457;28;20060;-68
2021/08/23 00:55:07;;;;;;;4.18;1.58;;;20.90;84.80;;;;;;5026005;28;20439;-68
2021/08/23 00:57:32;;;;;;;3.92;2.00;;;20.90;84.80;;;;;;5024680;28;20049;-69
2021/08/23 00:59:58;;;;;;;4.43;1.80;;;20.90;84.80;;;;;;5025459;28;20065;-67
2021/08/23 01:02:33;;;;;;;4.00;1.83;;;20.90;84.80;;;;;;5025771;28;20029;-68
2021/08/23 01:05:24;;;;;;;3.35;1.60;;;20.90;84.90;;;;;;5025484;28;20021;-68
2021/08/23 01:08:00;;;;;;;2.97;1.60;;;20.90;84.90;;;;;;5021371;28;20029;-67
2021/08/23 01:10:37;;;;;;;4.20;1.58;;;20.90;84.90;;;;;;5025398;28;20613;-68
2021/08/23 01:13:05;;;;;;;3.67;1.73;;;20.90;85.00;;;;;;5025420;28;20062;-69
2021/08/23 01:15:32;;;;;;;3.75;1.67;;;20.90;84.90;;;;;;5024275;28;20031;-68
2021/08/23 01:17:58;;;;;;;3.88;1.73;;;20.90;84.90;;;;;;5040372;28;20116;-68
2021/08/23 01:20:24;;;;;;;4.28;1.80;;;20.90;85.00;;;;;;5025211;28;20116;-68
2021/08/23 01:22:51;;;;;;;3.38;1.70;;;20.90;85.10;;;;;;5025209;28;20036;-68
2021/08/23 01:25:23;;;;;;;3.13;1.60;;;20.90;85.10;;;;;;5025695;28;20046;-68
2021/08/23 01:28:04;;;;;;;4.05;1.90;;;20.90;85.20;;;;;;5025339;28;20156;-67
2021/08/23 01:30:40;;;;;;;3.50;1.50;;;20.90;85.20;;;;;;5025042;28;20064;-67
2021/08/23 01:33:05;;;;;;;5.38;1.75;;;20.90;85.20;;;;;;5025311;28;20425;-68
2021/08/23 01:35:31;;;;;;;3.05;1.60;;;20.90;85.20;;;;;;5025085;28;20108;-68
2021/08/23 01:37:58;;;;;;;2.67;1.50;;;20.80;85.20;;;;;;5025159;28;20025;-68
2021/08/23 01:40:23;;;;;;;3.50;1.60;;;20.90;85.20;;;;;;5025129;28;20021;-66
2021/08/23 01:42:49;;;;;;;4.85;1.85;;;20.90;85.20;;;;;;5023797;28;20025;-68
2021/08/23 01:45:15;;;;;;;4.53;1.70;;;20.90;85.20;;;;;;5025291;28;20534;-68
2021/08/23 01:47:40;;;;;;;3.55;2.00;;;20.80;85.10;;;;;;5025345;28;20584;-68
2021/08/23 01:50:06;;;;;;;4.70;1.80;;;20.80;85.10;;;;;;5024821;28;20037;-68
2021/08/23 01:52:32;;;;;;;5.63;1.85;;;20.80;85.20;;;;;;5026207;28;20486;-68
2021/08/23 01:54:57;;;;;;;3.10;1.60;;;20.80;85.30;;;;;;5027777;28;20037;-68
2021/08/23 01:57:23;;;;;;;3.60;1.77;;;20.80;85.20;;;;;;5029276;28;20029;-68
2021/08/23 01:59:48;;;;;;;3.42;1.60;;;20.80;85.20;;;;;;5028846;28;20619;-68
2021/08/23 02:02:14;;;;;;;3.50;1.70;;;20.80;85.10;;;;;;5028730;28;20033;-68
2021/08/23 02:04:39;;;;;;;4.60;1.67;;;20.80;85.30;;;;;;5029010;28;20017;-69
2021/08/23 02:07:05;;;;;;;3.30;1.50;;;20.80;85.20;;;;;;5044366;28;20029;-68
2021/08/23 02:09:30;;;;;;;4.00;1.85;;;20.80;85.30;;;;;;5028968;28;20029;-68
2021/08/23 02:11:56;;;;;;;3.08;1.50;;;20.80;85.20;;;;;;5028473;28;20063;-69
2021/08/23 02:14:21;;;;;;;3.83;1.70;;;20.80;85.30;;;;;;5028825;28;20537;-67
2021/08/23 02:16:47;;;;;;;3.38;1.70;;;20.80;85.30;;;;;;5028992;28;20459;-69
2021/08/23 02:19:12;;;;;;;3.70;1.45;;;20.80;85.20;;;;;;5027148;28;20055;-68
2021/08/23 02:21:52;;;;;;;4.65;1.60;;;20.80;85.30;;;;;;5027144;28;20032;-68
2021/08/23 02:24:19;;;;;;;4.07;1.60;;;20.80;85.30;;;;;;5028825;28;20029;-69
2021/08/23 02:26:44;;;;;;;3.90;1.83;;;20.80;85.40;;;;;;5028631;28;20083;-69
2021/08/23 02:29:10;;;;;;;3.78;1.90;;;20.80;85.30;;;;;;5028711;28;20034;-68
2021/08/23 02:31:36;;;;;;;2.97;1.58;;;20.80;85.30;;;;;;5028080;28;20116;-68
2021/08/23 02:34:02;;;;;;;3.45;1.67;;;20.80;85.30;;;;;;5036260;28;20107;-68
2021/08/23 02:36:27;;;;;;;3.78;1.60;;;20.80;85.40;;;;;;5045033;28;20592;-68
2021/08/23 02:38:53;;;;;;;3.83;1.67;;;20.80;85.30;;;;;;5046888;28;20474;-68
2021/08/23 02:41:18;;;;;;;5.45;1.70;;;20.80;85.40;;;;;;5047050;28;20021;-68
2021/08/23 02:43:44;;;;;;;3.78;1.90;;;20.80;85.40;;;;;;5048250;28;20029;-69
2021/08/23 02:46:09;;;;;;;3.45;1.60;;;20.80;85.40;;;;;;5048202;28;20029;-67
2021/08/23 02:48:35;;;;;;;5.82;1.77;;;20.80;85.30;;;;;;5046824;28;20364;-67
2021/08/23 02:51:00;;;;;;;4.10;1.90;;;20.80;85.40;;;;;;5047787;28;20112;-67
2021/08/23 02:53:26;;;;;;;5.07;1.90;;;20.80;85.30;;;;;;5046572;28;20418;-68
2021/08/23 02:55:51;;;;;;;3.28;1.83;;;20.80;85.40;;;;;;5048144;28;20029;-68
2021/08/23 02:58:17;;;;;;;3.35;1.70;;;20.80;85.40;;;;;;5046561;28;20036;-69
2021/08/23 03:00:42;;;;;;;4.30;1.90;;;20.80;85.40;;;;;;5046388;28;20021;-68
2021/08/23 03:03:08;;;;;;;3.88;1.67;;;20.80;85.50;;;;;;5046549;28;20021;-68
2021/08/23 03:05:33;;;;;;;4.55;1.90;;;20.80;85.50;;;;;;5045271;28;20631;-68
2021/08/23 03:07:59;;;;;;;4.25;1.90;;;20.80;85.50;;;;;;5046590;28;20031;-67
2021/08/23 03:10:25;;;;;;;3.63;2.00;;;20.80;85.50;;;;;;5047289;28;20134;-67
2021/08/23 03:12:50;;;;;;;4.88;2.05;;;20.80;85.50;;;;;;5047540;28;20104;-68
2021/08/23 03:15:16;;;;;;;4.60;1.88;;;20.80;85.40;;;;;;5047587;28;20040;-68
2021/08/23 03:17:41;;;;;;;4.53;1.98;;;20.80;85.50;;;;;;5046250;28;20032;-67
2021/08/23 03:20:07;;;;;;;3.28;1.80;;;20.80;85.50;;;;;;5047291;28;20107;-68
2021/08/23 03:22:33;;;;;;;4.15;1.95;;;20.80;85.50;;;;;;5045979;28;20437;-68
2021/08/23 03:24:59;;;;;;;3.00;1.73;;;20.80;85.50;;;;;;5046155;28;20389;-68
2021/08/23 03:27:24;;;;;;;4.28;2.28;;;20.80;85.50;;;;;;5047472;28;20056;-67
2021/08/23 03:29:51;;;;;;;4.13;2.17;;;20.80;85.60;;;;;;5047409;28;20078;-68
2021/08/23 03:32:16;;;;;;;3.65;1.98;;;20.70;85.60;;;;;;5045626;28;20029;-67
2021/08/23 03:34:42;;;;;;;3.13;1.70;;;20.80;85.80;;;;;;5047124;28;20032;-67
2021/08/23 03:37:07;;;;;;;2.97;1.65;;;20.80;85.80;;;;;;5047408;28;20478;-68
2021/08/23 03:39:33;;;;;;;4.15;1.83;;;20.80;85.90;;;;;;5047070;28;20818;-67
2021/08/23 03:41:58;;;;;;;3.78;1.88;;;20.80;86.00;;;;;;5046915;28;20090;-65
2021/08/23 03:44:24;;;;;;;4.60;2.13;;;20.80;86.10;;;;;;5047108;28;20389;-68
2021/08/23 03:46:52;;;;;;;3.25;1.70;;;20.80;86.10;;;;;;5047147;28;20033;-68
2021/08/23 03:49:18;;;;;;;3.70;1.75;;;20.70;86.10;;;;;;5046923;28;20021;-67
2021/08/23 03:51:43;;;;;;;3.72;1.80;;;20.70;86.20;;;;;;5045330;28;20044;-68
2021/08/23 03:54:09;;;;;;;4.38;1.98;;;20.70;86.30;;;;;;5046707;28;20504;-68
2021/08/23 03:56:34;;;;;;;3.00;1.60;;;20.70;86.30;;;;;;5046847;28;20044;-68
2021/08/23 03:59:00;;;;;;;4.03;1.77;;;20.70;86.40;;;;;;5046724;28;20048;-67
2021/08/23 04:01:25;;;;;;;4.45;2.00;;;20.70;86.70;;;;;;5046367;28;20029;-68
2021/08/23 04:03:51;;;;;;;3.58;1.98;;;20.70;86.50;;;;;;5046458;28;20482;-67
2021/08/23 04:06:16;;;;;;;4.93;1.88;;;20.70;87.10;;;;;;5046807;28;20418;-67
2021/08/23 04:08:43;;;;;;;4.32;2.00;;;20.70;86.60;;;;;;5046570;28;20040;-67
2021/08/23 04:11:15;;;;;;;3.45;1.90;;;20.70;86.70;;;;;;5044884;28;20072;-67
2021/08/23 04:13:42;;;;;;;3.85;1.98;;;20.70;86.70;;;;;;5046427;28;20029;-67
2021/08/23 04:16:13;;;;;;;2.83;1.65;;;20.70;86.70;;;;;;5044829;28;20040;-67
2021/08/23 04:18:40;;;;;;;4.57;2.10;;;20.80;86.90;;;;;;5046434;28;20049;-68
2021/08/23 04:21:06;;;;;;;5.07;2.22;;;20.70;86.80;;;;;;5038196;28;20036;-67
2021/08/23 04:23:32;;;;;;;3.15;1.77;;;20.70;86.80;;;;;;5036287;28;20025;-67
2021/08/23 04:25:57;;;;;;;4.88;2.17;;;20.70;86.90;;;;;;5033859;28;20510;-68
2021/08/23 04:28:23;;;;;;;4.88;2.15;;;20.80;87.00;;;;;;5023014;28;20039;-67
2021/08/23 04:30:48;;;;;;;4.50;2.20;;;20.70;87.10;;;;;;5033513;28;20112;-67
2021/08/23 04:33:14;;;;;;;4.07;1.90;;;20.70;87.30;;;;;;5035050;28;20037;-66
2021/08/23 04:35:39;;;;;;;3.90;2.10;;;20.70;87.30;;;;;;5033312;28;20482;-67
2021/08/23 04:38:05;;;;;;;4.75;2.22;;;20.70;87.50;;;;;;5046129;28;20762;-68
2021/08/23 04:40:30;;;;;;;4.75;2.08;;;20.70;87.50;;;;;;5045707;28;20067;-66
2021/08/23 04:42:56;;;;;;;5.90;2.38;;;20.70;87.60;;;;;;5031653;28;20501;-69
2021/08/23 04:45:22;;;;;;;4.32;2.05;;;20.70;87.60;;;;;;5023590;28;20087;-68
2021/08/23 04:47:47;;;;;;;4.72;2.30;;;20.70;87.60;;;;;;5030467;28;20446;-70
2021/08/23 04:50:13;;;;;;;5.72;2.30;;;20.70;87.60;;;;;;5035363;28;20636;-67
2021/08/23 04:52:45;;;;;;;5.70;2.70;;;20.70;87.90;;;;;;5032926;28;20155;-68
2021/08/23 04:55:11;;;;;;;6.85;2.70;;;20.70;87.60;;;;;;5025739;28;20045;-68
2021/08/23 04:57:37;;;;;;;4.60;2.50;;;20.70;87.70;;;;;;5024700;28;20033;-68
2021/08/23 05:00:07;;;;;;;5.65;2.55;;;20.70;87.60;;;;;;5025515;28;20787;-69
2021/08/23 05:02:33;;;;;;;5.80;2.40;;;20.70;87.50;;;;;;5024494;28;20026;-68
2021/08/23 05:04:59;;;;;;;4.57;2.40;;;20.70;87.50;;;;;;5024722;28;20028;-68
2021/08/23 05:07:24;;;;;;;5.10;2.78;;;20.70;87.60;;;;;;5029877;28;20028;-69
2021/08/23 05:09:50;;;;;;;5.55;2.35;;;20.80;87.80;;;;;;5032539;28;20037;-66
2021/08/23 05:12:15;;;;;;;9.10;3.10;;;20.80;87.70;;;;;;5037244;28;20259;-66
2021/08/23 05:14:41;;;;;;;22.48;15.25;;;20.80;87.90;;;;;;5042235;28;20041;-65
2021/08/23 05:17:06;;;;;;;16.48;10.68;;;20.80;89.10;;;;;;5045099;28;20037;-68
2021/08/23 05:19:32;;;;;;;13.23;4.43;;;20.80;89.50;;;;;;5032321;28;20040;-68
2021/08/23 05:21:57;;;;;;;10.23;5.20;;;20.90;88.90;;;;;;5041722;28;20036;-67
2021/08/23 05:24:23;;;;;;;12.50;4.50;;;20.90;88.70;;;;;;5045651;28;20033;-68
2021/08/23 05:26:49;;;;;;;9.95;4.30;;;20.80;88.40;;;;;;5043958;28;20445;-68
2021/08/23 05:29:14;;;;;;;9.27;4.80;;;20.90;88.30;;;;;;5043958;28;20087;-68
2021/08/23 05:31:40;;;;;;;9.98;4.22;;;20.80;88.00;;;;;;5044164;28;20078;-70
2021/08/23 05:34:05;;;;;;;12.73;4.13;;;20.90;88.30;;;;;;5045912;28;20036;-69
2021/08/23 05:36:31;;;;;;;10.82;4.10;;;20.90;88.40;;;;;;5045966;28;20806;-69
2021/08/23 05:38:56;;;;;;;15.07;4.30;;;20.90;88.20;;;;;;5044379;28;20033;-69
2021/08/23 05:41:22;;;;;;;10.95;4.20;;;20.90;87.90;;;;;;5045703;28;20028;-69
2021/08/23 05:43:47;;;;;;;8.23;3.72;;;20.90;87.70;;;;;;5038560;28;20021;-69
2021/08/23 05:46:15;;;;;;;9.20;4.25;;;20.90;87.80;;;;;;5034317;28;20033;-68
2021/08/23 05:48:41;;;;;;;8.70;3.88;;;20.90;87.70;;;;;;5034496;28;20401;-68
2021/08/23 05:51:09;;;;;;;8.63;4.30;;;20.90;87.90;;;;;;5033857;28;20128;-68
2021/08/23 05:53:35;;;;;;;7.40;3.33;;;20.90;87.70;;;;;;5033671;28;20516;-69
2021/08/23 05:56:00;;;;;;;7.32;4.03;;;20.80;87.50;;;;;;5032699;28;20041;-69
2021/08/23 05:58:26;;;;;;;8.52;3.70;;;20.80;87.20;;;;;;5033007;28;20492;-67
2021/08/23 06:00:51;;;;;;;8.27;3.40;;;20.80;86.90;;;;;;5033580;28;20121;-69
2021/08/23 06:03:17;;;;;;;9.93;5.90;;;20.80;86.50;;;;;;5025770;28;20029;-67
2021/08/23 06:05:42;;;;;;;13.43;6.90;;;20.80;84.80;;;;;;5025929;28;20025;-66
2021/08/23 06:08:08;;;;;;;8.95;4.30;;;20.70;84.30;;;;;;5044192;28;20033;-68
2021/08/23 06:10:34;;;;;;;9.45;5.57;;;20.70;86.40;;;;;;5044454;28;20082;-67
2021/08/23 06:12:59;;;;;;;9.68;5.10;;;20.70;86.60;;;;;;5043960;28;20017;-67
2021/08/23 06:15:25;;;;;;;7.38;4.75;;;20.80;86.70;;;;;;5040823;28;20044;-68
2021/08/23 06:17:50;;;;;;;7.78;4.45;;;20.80;86.40;;;;;;5042151;28;20021;-68
2021/08/23 06:20:16;;;;;;;8.02;4.10;;;20.70;86.30;;;;;;5034079;28;20061;-68
2021/08/23 06:22:43;;;;;;;8.38;3.63;;;20.80;86.10;;;;;;5033313;28;20061;-67
2021/08/23 06:25:09;;;;;;;6.95;3.50;;;20.80;86.10;;;;;;5029790;28;20032;-66
2021/08/23 06:27:35;;;;;;;7.15;3.80;;;20.80;85.70;;;;;;5029954;28;20534;-68
2021/08/23 06:30:02;;;;;;;6.13;3.38;;;20.80;85.50;;;;;;5043518;28;20028;-68
2021/08/23 06:32:28;;;;;;;8.88;4.25;;;20.80;85.30;;;;;;5030538;28;20033;-67
2021/08/23 06:34:54;;;;;;;6.60;3.33;;;20.80;85.20;;;;;;5043988;28;20031;-68
2021/08/23 06:37:20;;;;;;;7.95;4.88;;;20.80;85.50;;;;;;5044457;28;20513;-71
2021/08/23 06:39:45;;;;;;;8.25;5.32;;;20.80;84.80;;;;;;5047233;28;20035;-69
2021/08/23 06:42:11;;;;;;;8.90;4.63;;;20.80;84.50;;;;;;5040316;28;20021;-69
2021/08/23 06:44:36;;;;;;;7.47;4.45;;;20.70;85.20;;;;;;5034791;28;20076;-69
2021/08/23 06:47:02;;;;;;;7.53;4.10;;;20.70;85.40;;;;;;5026900;28;20057;-68
2021/08/23 06:49:28;;;;;;;7.13;4.50;;;20.70;85.40;;;;;;5043015;28;20041;-68
2021/08/23 06:51:53;;;;;;;7.22;3.95;;;20.80;85.40;;;;;;5042984;28;20030;-69
2021/08/23 06:54:19;;;;;;;8.02;4.53;;;20.70;85.10;;;;;;5028236;28;20038;-69
2021/08/23 06:56:45;;;;;;;7.20;3.90;;;20.70;84.80;;;;;;5026763;28;20735;-69
2021/08/23 06:59:10;;;;;;;6.95;3.53;;;20.70;84.90;;;;;;5028283;28;20092;-69
2021/08/23 07:01:36;;;;;;;7.50;3.75;;;20.70;84.80;;;;;;5040820;28;20026;-69
2021/08/23 07:04:02;;;;;;;6.47;3.70;;;20.70;84.70;;;;;;5046805;28;20033;-68
2021/08/23 07:06:28;;;;;;;6.93;3.90;;;20.70;84.40;;;;;;5048157;28;20659;-69
2021/08/23 07:08:53;;;;;;;6.30;3.53;;;20.80;85.10;;;;;;5045784;28;20033;-72
2021/08/23 07:11:19;;;;;;;8.25;4.55;;;20.80;85.00;;;;;;5026800;28;20045;-67
2021/08/23 07:13:45;;;;;;;8.75;4.28;;;20.80;84.30;;;;;;5026572;28;20026;-68
2021/08/23 07:16:11;;;;;;;6.95;4.20;;;20.70;84.70;;;;;;5026637;28;20127;-68
2021/08/23 07:18:37;;;;;;;8.25;3.92;;;20.70;84.70;;;;;;5027632;28;20033;-68
2021/08/23 07:21:03;;;;;;;8.23;4.70;;;20.80;84.00;;;;;;5027780;28;20036;-67
2021/08/23 07:23:29;;;;;;;6.82;3.85;;;20.80;83.40;;;;;;5026177;28;20026;-67
2021/08/23 07:25:55;;;;;;;7.22;3.72;;;20.90;82.90;;;;;;5026213;28;20499;-68
2021/08/23 07:28:21;;;;;;;6.68;3.60;;;20.90;83.90;;;;;;5027566;28;20062;-67
2021/08/23 07:30:46;;;;;;;6.28;3.70;;;20.80;84.30;;;;;;5031386;28;20502;-69
2021/08/23 07:33:12;;;;;;;5.65;3.33;;;20.90;84.20;;;;;;5026902;28;20065;-68
2021/08/23 07:35:38;;;;;;;7.35;3.72;;;20.90;83.70;;;;;;5028664;28;20083;-68
2021/08/23 07:38:03;;;;;;;9.75;3.90;;;20.90;83.40;;;;;;5036125;28;20060;-69
2021/08/23 07:40:29;;;;;;;5.85;3.42;;;20.90;83.00;;;;;;5035398;28;20029;-68
2021/08/23 07:42:55;;;;;;;6.07;3.30;;;20.90;82.80;;;;;;5025544;28;20546;-67
2021/08/23 07:45:21;;;;;;;7.53;3.45;;;20.90;83.50;;;;;;5026326;28;20040;-68
2021/08/23 07:47:46;;;;;;;7.20;4.07;;;20.90;83.00;;;;;;5026765;28;20026;-68
2021/08/23 07:50:13;;;;;;;5.93;3.30;;;20.90;82.90;;;;;;5026610;28;20068;-67
2021/08/23 07:52:39;;;;;;;6.40;4.00;;;21.00;83.10;;;;;;5027390;28;20084;-67
2021/08/23 07:55:09;;;;;;;6.93;3.60;;;21.00;82.60;;;;;;5027549;28;20487;-67
2021/08/23 07:57:41;;;;;;;7.75;4.22;;;21.00;82.10;;;;;;5047190;28;20079;-68
2021/08/23 08:00:08;;;;;;;6.97;4.00;;;21.00;82.40;;;;;;5045025;28;20474;-66
2021/08/23 08:02:33;;;;;;;6.53;3.70;;;21.00;82.00;;;;;;5047080;28;20035;-68
2021/08/23 08:04:59;;;;;;;6.78;3.70;;;21.00;81.60;;;;;;5045195;28;20025;-67
2021/08/23 08:07:24;;;;;;;7.97;4.25;;;21.00;81.80;;;;;;5045445;28;20479;-67
2021/08/23 08:09:50;;;;;;;6.57;3.78;;;21.00;81.70;;;;;;5046610;28;20055;-67
2021/08/23 08:12:15;;;;;;;6.80;3.85;;;21.00;81.50;;;;;;5046465;28;20043;-68
2021/08/23 08:14:41;;;;;;;6.47;3.65;;;21.00;81.20;;;;;;5046636;28;20068;-67
2021/08/23 08:17:06;;;;;;;6.55;3.60;;;21.10;81.00;;;;;;5045786;28;20033;-68
2021/08/23 08:19:32;;;;;;;6.20;3.63;;;21.10;81.20;;;;;;5046614;28;20033;-68
2021/08/23 08:22:04;;;;;;;5.70;3.30;;;21.10;80.90;;;;;;5046573;28;20025;-68
2021/08/23 08:24:30;;;;;;;6.88;3.72;;;21.10;81.00;;;;;;5046525;28;20025;-68
2021/08/23 08:26:55;;;;;;;6.85;3.65;;;21.10;80.70;;;;;;5046451;28;20430;-67
2021/08/23 08:29:20;;;;;;;7.40;3.92;;;21.20;80.50;;;;;;5044935;28;20128;-68
2021/08/23 08:31:46;;;;;;;6.70;3.63;;;21.20;80.20;;;;;;5045453;28;20381;-67
2021/08/23 08:34:12;;;;;;;5.55;3.10;;;21.20;80.20;;;;;;5045843;28;20059;-67
2021/08/23 08:36:37;;;;;;;7.10;3.53;;;21.20;80.50;;;;;;5045278;28;20068;-67
2021/08/23 08:39:03;;;;;;;7.28;3.70;;;21.20;80.30;;;;;;5045867;28;20024;-67
2021/08/23 08:41:30;;;;;;;5.53;2.92;;;21.20;79.10;;;;;;5044071;28;20040;-67
2021/08/23 08:43:56;;;;;;;5.75;3.42;;;21.30;79.10;;;;;;5045090;28;20131;-66
2021/08/23 08:46:22;;;;;;;7.75;3.30;;;21.40;78.60;;;;;;5044899;28;20027;-67
2021/08/23 08:48:48;;;;;;;7.88;3.30;;;21.40;78.10;;;;;;5044553;28;20029;-67
2021/08/23 08:51:14;;;;;;;6.97;3.50;;;21.40;77.80;;;;;;5044755;28;20481;-67
2021/08/23 08:53:40;;;;;;;6.70;3.40;;;21.40;77.80;;;;;;5045880;28;20166;-67
2021/08/23 08:56:06;;;;;;;7.72;3.60;;;21.50;77.60;;;;;;5046152;28;20029;-67
2021/08/23 08:58:32;;;;;;;6.35;3.60;;;21.50;77.50;;;;;;5045714;28;20024;-67
2021/08/23 09:00:58;;;;;;;6.80;3.47;;;21.40;77.60;;;;;;5044191;28;20111;-68
2021/08/23 09:03:29;;;;;;;8.68;3.30;;;21.40;77.60;;;;;;5043609;28;20096;-67
2021/08/23 09:06:04;;;;;;;6.47;3.17;;;21.40;77.80;;;;;;5046028;28;20040;-67
2021/08/23 09:08:30;;;;;;;5.85;3.45;;;21.40;77.80;;;;;;5044496;28;20056;-67
2021/08/23 09:11:08;;;;;;;6.05;3.22;;;21.40;77.80;;;;;;5043688;28;20490;-67
2021/08/23 09:13:33;;;;;;;6.30;2.83;;;21.40;77.80;;;;;;5044583;28;20036;-67
2021/08/23 09:15:59;;;;;;;6.57;3.45;;;21.40;77.80;;;;;;5044835;28;20047;-67
2021/08/23 09:18:29;;;;;;;6.30;3.00;;;21.40;77.60;;;;;;5043902;28;20029;-68
2021/08/23 09:21:01;;;;;;;5.18;2.88;;;21.50;77.60;;;;;;5045614;28;20385;-67
2021/08/23 09:23:41;;;;;;;6.13;2.88;;;21.50;77.50;;;;;;5044083;28;20016;-67
2021/08/23 09:26:15;;;;;;;8.02;3.03;;;21.50;77.50;;;;;;5044065;28;20029;-67
2021/08/23 09:28:53;;;;;;;5.82;3.03;;;21.50;77.20;;;;;;5045409;28;20083;-68
2021/08/23 09:31:28;;;;;;;6.95;3.15;;;21.60;77.40;;;;;;5044041;28;20501;-67
2021/08/23 09:33:58;;;;;;;6.03;2.80;;;21.50;77.30;;;;;;5045478;28;20037;-67
2021/08/23 09:36:24;;;;;;;7.13;2.90;;;21.50;77.40;;;;;;5045362;28;20056;-67
2021/08/23 09:38:58;;;;;;;5.45;2.70;;;21.50;77.40;;;;;;5045639;28;20064;-67
2021/08/23 09:41:24;;;;;;;5.03;2.60;;;21.50;77.30;;;;;;5044651;28;20474;-67
2021/08/23 09:44:10;;;;;;;6.18;2.72;;;21.60;77.40;;;;;;5045566;28;20029;-68
2021/08/23 09:46:36;;;;;;;6.00;2.70;;;21.60;77.00;;;;;;5037520;28;20518;-68
2021/08/23 09:49:04;;;;;;;5.57;2.67;;;21.70;76.80;;;;;;5030808;28;20033;-68
2021/08/23 09:51:39;;;;;;;5.72;2.40;;;21.60;76.80;;;;;;5036430;28;20040;-68
2021/08/23 09:54:19;;;;;;;4.53;2.60;;;21.60;76.90;;;;;;5037545;28;20240;-67
2021/08/23 09:56:47;;;;;;;5.43;2.60;;;21.60;76.90;;;;;;5031557;28;20029;-66
2021/08/23 09:59:21;;;;;;;8.85;3.10;;;21.60;76.80;;;;;;5031594;28;20032;-68
2021/08/23 10:01:48;;;;;;;5.22;2.50;;;21.60;76.80;;;;;;5032782;28;20083;-68
2021/08/23 10:04:15;;;;;;;4.18;2.10;;;21.60;76.80;;;;;;5027957;28;20096;-68
2021/08/23 10:06:42;;;;;;;5.38;2.50;;;21.60;76.60;;;;;;5035094;28;20017;-67
2021/08/23 10:09:08;;;;;;;4.75;2.22;;;21.60;76.40;;;;;;5025441;28;20132;-67
2021/08/23 10:11:36;;;;;;;6.18;2.60;;;21.70;76.50;;;;;;5032018;28;20041;-67
2021/08/23 10:14:03;;;;;;;4.75;2.20;;;21.70;76.70;;;;;;5038220;28;20124;-68
2021/08/23 10:16:29;;;;;;;4.13;1.80;;;21.70;76.60;;;;;;5034646;28;20339;-67
2021/08/23 10:18:55;;;;;;;4.50;2.00;;;21.60;76.80;;;;;;5037937;28;20106;-67
2021/08/23 10:21:22;;;;;;;3.22;1.65;;;21.60;76.90;;;;;;5045814;28;20033;-68
2021/08/23 10:23:49;;;;;;;4.28;1.90;;;21.70;76.90;;;;;;5047246;28;20448;-68
2021/08/23 10:26:16;;;;;;;5.20;2.25;;;21.70;76.90;;;;;;5048709;28;20084;-67
2021/08/23 10:28:47;;;;;;;3.88;2.00;;;21.70;77.60;;;;;;5044506;28;20437;-68
2021/08/23 10:31:13;;;;;;;3.50;1.90;;;21.70;77.30;;;;;;5048318;28;20033;-67
2021/08/23 10:33:42;;;;;;;4.70;1.83;;;21.70;77.30;;;;;;5037836;28;20065;-67
2021/08/23 10:36:11;;;;;;;4.25;1.95;;;21.80;77.10;;;;;;5028772;28;20091;-68
2021/08/23 10:38:38;;;;;;;5.35;1.67;;;21.80;77.30;;;;;;5027197;28;20418;-67
2021/08/23 10:41:15;;;;;;;6.57;1.90;;;21.80;77.30;;;;;;5040816;28;20025;-67
2021/08/23 10:43:51;;;;;;;3.45;1.80;;;21.80;77.30;;;;;;5030409;28;20129;-67
2021/08/23 10:46:24;;;;;;;5.25;1.90;;;21.80;77.40;;;;;;5028150;28;20029;-67
2021/08/23 10:48:51;;;;;;;6.82;1.77;;;21.80;77.40;;;;;;5028154;28;20037;-67
2021/08/23 10:51:28;;;;;;;3.58;1.60;;;21.80;77.50;;;;;;5027660;28;20430;-67
2021/08/23 10:53:54;;;;;;;5.28;1.92;;;21.80;77.40;;;;;;5026145;28;20033;-67
2021/08/23 10:56:21;;;;;;;5.40;1.92;;;21.80;77.20;;;;;;5026538;28;20064;-67
2021/08/23 10:58:49;;;;;;;4.00;1.80;;;21.80;77.50;;;;;;5027806;28;20108;-67
2021/08/23 11:01:21;;;;;;;4.38;1.67;;;21.80;77.50;;;;;;5027434;28;20091;-66
2021/08/23 11:04:04;;;;;;;5.38;1.60;;;21.80;77.50;;;;;;5027630;28;20304;-65
2021/08/23 11:06:32;;;;;;;3.40;1.73;;;21.90;77.50;;;;;;5027874;28;20025;-68
2021/08/23 11:09:12;;;;;;;3.10;1.50;;;21.90;77.50;;;;;;5027534;28;20039;-68
2021/08/23 11:11:39;;;;;;;4.05;1.60;;;21.90;77.60;;;;;;5025780;28;20107;-68
2021/08/23 11:14:19;;;;;;;4.35;1.73;;;21.80;77.50;;;;;;5027422;28;20036;-68
2021/08/23 11:16:52;;;;;;;5.60;1.88;;;21.80;77.50;;;;;;5026197;28;20029;-68
2021/08/23 11:19:20;;;;;;;3.58;1.60;;;21.80;77.60;;;;;;5027236;28;20029;-68
2021/08/23 11:21:54;;;;;;;4.05;1.70;;;21.80;77.60;;;;;;5027137;28;20017;-67
2021/08/23 11:24:19;;;;;;;3.70;1.50;;;21.80;77.70;;;;;;5027270;28;20068;-67
2021/08/23 11:27:01;;;;;;;3.50;1.60;;;21.80;77.70;;;;;;5026644;28;20071;-68
2021/08/23 11:29:30;;;;;;;3.42;1.50;;;21.80;77.70;;;;;;5027294;28;20434;-68
2021/08/23 11:32:00;;;;;;;4.93;1.92;;;21.80;77.70;;;;;;5027030;28;20038;-68
2021/08/23 11:34:26;;;;;;;4.60;1.90;;;21.80;77.70;;;;;;5027396;28;20486;-67
2021/08/23 11:36:53;;;;;;;4.07;1.60;;;21.80;77.80;;;;;;5027416;28;20112;-67
2021/08/23 11:39:18;;;;;;;3.88;1.58;;;21.80;77.70;;;;;;5026910;28;20127;-67
2021/08/23 11:41:54;;;;;;;2.65;1.58;;;21.80;77.90;;;;;;5025416;28;20064;-67
2021/08/23 11:44:20;;;;;;;2.55;1.40;;;21.80;77.80;;;;;;5026734;28;20041;-68
2021/08/23 11:47:02;;;;;;;4.00;1.50;;;21.80;77.90;;;;;;5025627;28;20502;-67
2021/08/23 11:49:30;;;;;;;2.45;1.30;;;21.80;77.80;;;;;;5025327;28;20037;-67
2021/08/23 11:51:55;;;;;;;3.75;1.50;;;21.80;77.80;;;;;;5026931;28;20033;-67
2021/08/23 11:54:21;;;;;;;1.98;1.40;;;21.80;77.90;;;;;;5026761;28;20384;-67
2021/08/23 11:56:46;;;;;;;2.97;1.58;;;21.80;77.90;;;;;;5026628;28;20052;-68
2021/08/23 11:59:13;;;;;;;3.40;1.67;;;21.80;77.80;;;;;;5026377;28;20063;-67
2021/08/23 12:01:38;;;;;;;3.92;1.70;;;21.80;77.90;;;;;;5026567;28;20032;-68
2021/08/23 12:04:04;;;;;;;3.65;1.75;;;21.80;77.90;;;;;;5026918;28;20112;-66
2021/08/23 12:06:34;;;;;;;2.80;1.50;;;21.80;78.00;;;;;;5025285;28;20030;-67
2021/08/23 12:09:01;;;;;;;4.75;1.70;;;21.80;78.00;;;;;;5026695;28;20095;-68
2021/08/23 12:11:26;;;;;;;4.05;1.70;;;21.80;77.90;;;;;;5025985;28;20039;-68
2021/08/23 12:13:52;;;;;;;3.25;1.70;;;21.80;77.90;;;;;;5026557;28;20033;-67
2021/08/23 12:16:39;;;;;;;2.72;1.58;;;21.80;77.80;;;;;;5026365;28;20044;-67
2021/08/23 12:19:07;;;;;;;3.88;1.90;;;21.80;77.80;;;;;;5024235;28;20393;-68
2021/08/23 12:21:33;;;;;;;3.53;1.65;;;21.80;77.80;;;;;;5026037;28;20029;-67
2021/08/23 12:23:58;;;;;;;2.95;1.50;;;21.80;77.80;;;;;;5026380;28;20045;-67
2021/08/23 12:26:25;;;;;;;4.60;1.98;;;21.80;77.70;;;;;;5025089;28;20053;-67
2021/08/23 12:28:53;;;;;;;3.33;1.83;;;21.80;77.80;;;;;;5026239;28;20090;-67
2021/08/23 12:31:19;;;;;;;4.82;1.80;;;21.90;77.80;;;;;;5025751;28;20029;-67
2021/08/23 12:33:45;;;;;;;3.17;1.50;;;21.90;77.60;;;;;;5025997;28;20040;-68
2021/08/23 12:36:11;;;;;;;4.10;1.92;;;21.90;77.50;;;;;;5025432;28;20082;-67
2021/08/23 12:38:37;;;;;;;2.95;1.50;;;22.00;77.50;;;;;;5033142;28;20037;-68
2021/08/23 12:41:02;;;;;;;3.95;1.70;;;22.00;77.40;;;;;;5037093;28;20410;-67
2021/08/23 12:43:28;;;;;;;4.28;1.85;;;22.00;77.50;;;;;;5053887;28;20075;-67
2021/08/23 12:45:54;;;;;;;5.70;1.90;;;22.00;77.00;;;;;;5039713;28;20033;-68